Terminal Aerodrome Forecast
Issued by NWS Caribou, ME

Home | Current Version | Previous Version | Text Only | Print | Product List | Glossary On
Versions: 1 2 3 4 5 6 7 8 9 10 11 12 13 14 15 16
000
FTUS41 KCAR 312019 AAA
TAFBGR
TAF AMD
KBGR 312019Z 3120/0118 34019KT 1SM -SN BLSN OVC025
     FM312100 33018KT 6SM BLSN OVC025
     FM312300 33015KT 6SM BLSN BKN050
     FM011100 28007KT P6SM FEW250=

USA.gov is the U.S. government's official web portal to all federal, state and local government web resources and services.